createdAt,value
2022-08-10T00:01:52.658Z,98812.88
2022-08-10T00:04:23.147Z,98811.19
2022-08-10T00:06:55.617Z,98808.44
2022-08-10T00:09:23.864Z,98809.19
2022-08-10T00:11:51.461Z,98808.56
2022-08-10T00:14:19.158Z,98814.97
2022-08-10T00:16:47.095Z,98816.53
2022-08-10T00:19:16.735Z,98810.81
2022-08-10T00:21:46.603Z,98808.88
2022-08-10T00:24:14.858Z,98808.88
2022-08-10T00:27:58.906Z,98808.06
2022-08-10T00:29:31.048Z,98816.16
2022-08-10T00:31:59.664Z,98814.00
2022-08-10T00:34:32.796Z,98816.47
2022-08-10T00:37:01.218Z,98810.25
2022-08-10T00:39:29.460Z,98811.94
2022-08-10T00:42:01.932Z,98805.50
2022-08-10T00:44:42.985Z,98813.84
2022-08-10T00:47:35.497Z,98815.22
2022-08-10T00:49:59.428Z,98815.84
2022-08-10T00:52:30.006Z,98819.63
2022-08-10T00:54:58.238Z,98819.78
2022-08-10T00:57:26.117Z,98810.78
2022-08-10T00:59:59.006Z,98825.66
2022-08-10T01:02:32.408Z,98816.28
2022-08-10T01:05:05.232Z,98815.22
2022-08-10T01:07:56.789Z,98815.78
2022-08-10T01:10:43.579Z,98806.72
2022-08-10T01:13:32.412Z,98806.16
2022-08-10T01:16:09.337Z,98813.41
2022-08-10T01:18:52.736Z,98809.34
2022-08-10T01:21:57.082Z,98795.06
2022-08-10T01:24:39.197Z,98794.25
2022-08-10T01:27:27.681Z,98801.03
2022-08-10T01:30:12.416Z,98794.72
2022-08-10T01:33:01.608Z,98800.59
2022-08-10T01:35:54.372Z,98805.19
2022-08-10T01:38:32.240Z,98795.78
2022-08-10T01:41:06.506Z,98799.31
2022-08-10T01:43:40.824Z,98803.63
2022-08-10T01:46:10.626Z,98805.25
2022-08-10T01:48:48.821Z,98800.66
2022-08-10T01:51:27.746Z,98802.56
2022-08-10T01:54:01.665Z,98806.06
2022-08-10T01:56:31.144Z,98799.31
2022-08-10T01:59:07.737Z,98803.63
2022-08-10T02:01:40.441Z,98798.47
2022-08-10T02:04:11.073Z,98802.22
2022-08-10T02:06:49.064Z,98812.19
2022-08-10T02:09:24.035Z,98810.31
2022-08-10T02:12:05.785Z,98809.50
2022-08-10T02:14:51.198Z,98815.69
2022-08-10T02:17:58.033Z,98810.31
2022-08-10T02:20:18.511Z,98807.03
2022-08-10T02:22:49.972Z,98804.59
2022-08-10T02:25:40.936Z,98808.59
2022-08-10T02:28:09.115Z,98809.06
2022-08-10T02:30:38.234Z,98802.97
2022-08-10T02:33:07.001Z,98809.19
2022-08-10T02:35:53.848Z,98805.31
2022-08-10T02:38:57.702Z,98808.75
2022-08-10T02:45:13.000Z,98811.13
2022-08-10T02:45:23.391Z,98811.13
2022-08-10T02:47:51.086Z,98805.16
2022-08-10T02:50:38.940Z,98802.94
2022-08-10T02:53:54.477Z,98797.56
2022-08-10T02:56:12.795Z,98797.31
2022-08-10T02:58:45.066Z,98799.19
2022-08-10T03:01:17.653Z,98795.94
2022-08-10T03:03:59.302Z,98805.06
2022-08-10T03:06:34.680Z,98796.44
2022-08-10T03:09:06.491Z,98799.94
2022-08-10T03:12:35.660Z,98796.44
2022-08-10T03:14:25.425Z,98800.63
2022-08-10T03:16:56.627Z,98794.44
2022-08-10T03:20:35.453Z,98794.69
2022-08-10T03:22:15.725Z,98799.50
2022-08-10T03:24:44.574Z,98795.41
2022-08-10T03:27:13.594Z,98794.03
2022-08-10T03:30:23.501Z,98785.94
2022-08-10T03:32:33.496Z,98787.00
2022-08-10T03:35:02.024Z,98793.47
2022-08-10T03:37:29.600Z,98792.41
2022-08-10T03:39:57.514Z,98791.59
2022-08-10T03:42:27.670Z,98794.03
2022-08-10T03:44:56.637Z,98793.22
2022-08-10T03:47:25.741Z,98802.69
2022-08-10T03:49:56.334Z,98799.97
2022-08-10T03:52:25.433Z,98800.63
2022-08-10T03:54:53.300Z,98809.94
2022-08-10T03:57:22.593Z,98804.81
2022-08-10T03:59:50.764Z,98813.09
2022-08-10T04:02:44.345Z,98812.19
2022-08-10T04:05:08.045Z,98810.66
2022-08-10T04:07:36.375Z,98815.63
2022-08-10T04:10:04.103Z,98824.28
2022-08-10T04:12:32.750Z,98824.94
2022-08-10T04:15:00.420Z,98820.84
2022-08-10T04:18:03.006Z,98826.44
2022-08-10T04:20:25.796Z,98825.72
2022-08-10T04:23:01.330Z,98827.75
2022-08-10T04:25:29.720Z,98841.34
2022-08-10T04:27:58.071Z,98842.25
2022-08-10T04:30:28.243Z,98839.13
2022-08-10T04:32:59.796Z,98841.41
2022-08-10T04:35:29.896Z,98842.16
2022-08-10T04:37:59.398Z,98841.31
2022-08-10T04:40:30.736Z,98837.03
2022-08-10T04:43:04.479Z,98839.53
2022-08-10T04:45:49.856Z,98838.44
2022-08-10T04:48:43.481Z,98835.63
2022-08-10T04:51:17.705Z,98833.56
2022-08-10T04:54:04.664Z,98833.44
2022-08-10T04:56:39.742Z,98829.81
2022-08-10T04:59:09.625Z,98837.81
2022-08-10T05:02:22.483Z,98839.72
2022-08-10T05:04:38.497Z,98838.31
2022-08-10T05:07:17.019Z,98841.00
2022-08-10T05:10:01.597Z,98842.34
2022-08-10T05:12:38.734Z,98839.06
2022-08-10T05:15:14.184Z,98833.63
2022-08-10T05:18:03.333Z,98841.25
2022-08-10T05:20:30.846Z,98834.91
2022-08-10T05:22:58.390Z,98830.31
2022-08-10T05:25:25.943Z,98838.97
2022-08-10T05:27:57.284Z,98831.88
2022-08-10T05:30:25.350Z,98837.81
2022-08-10T05:32:57.797Z,98837.66
2022-08-10T05:35:28.854Z,98835.44
2022-08-10T05:38:18.133Z,98832.81
2022-08-10T05:40:47.826Z,98838.63
2022-08-10T05:43:20.442Z,98832.22
2022-08-10T05:46:19.687Z,98834.16
2022-08-10T05:48:56.405Z,98837.69
2022-08-10T05:51:28.239Z,98831.97
2022-08-10T05:54:02.618Z,98827.19
2022-08-10T05:56:53.850Z,98828.38
2022-08-10T06:00:10.793Z,98829.09
2022-08-10T06:02:34.099Z,98833.28
2022-08-10T06:05:19.372Z,98830.63
2022-08-10T06:08:08.701Z,98836.69
2022-08-10T06:12:21.663Z,98839.19
2022-08-10T06:13:59.470Z,98834.75
2022-08-10T06:16:34.906Z,98844.88
2022-08-10T06:19:04.297Z,98849.50
2022-08-10T06:21:33.043Z,98840.16
2022-08-10T06:24:02.443Z,98842.03
2022-08-10T06:26:30.112Z,98840.75
2022-08-10T06:29:04.229Z,98837.75
2022-08-10T06:31:47.854Z,98837.41
2022-08-10T06:34:27.588Z,98842.63
2022-08-10T06:36:59.455Z,98843.25
2022-08-10T06:39:36.316Z,98844.56
2022-08-10T06:42:17.923Z,98842.75
2022-08-10T06:45:00.766Z,98848.88
2022-08-10T06:47:46.830Z,98845.69
2022-08-10T06:50:56.099Z,98847.56
2022-08-10T06:53:16.122Z,98849.72
2022-08-10T06:55:57.078Z,98854.34
2022-08-10T06:58:29.330Z,98857.09
2022-08-10T07:00:58.231Z,98851.47
2022-08-10T07:03:34.114Z,98857.63
2022-08-10T07:06:06.531Z,98858.66
2022-08-10T07:08:37.003Z,98860.38
2022-08-10T07:11:08.811Z,98856.19
2022-08-10T07:14:15.252Z,98855.69
2022-08-10T07:16:30.062Z,98849.03
2022-08-10T07:19:00.581Z,98856.19
2022-08-10T07:21:30.391Z,98852.28
2022-08-10T07:24:00.828Z,98854.81
2022-08-10T07:26:31.732Z,98855.09
2022-08-10T07:29:00.433Z,98858.63
2022-08-10T07:31:49.312Z,98850.94
2022-08-10T07:34:28.706Z,98856.63
2022-08-10T07:37:06.242Z,98866.94
2022-08-10T07:40:03.188Z,98862.47
2022-08-10T07:42:31.185Z,98865.16
2022-08-10T07:44:59.681Z,98864.59
2022-08-10T07:47:52.718Z,98867.06
2022-08-10T07:50:25.190Z,98868.94
2022-08-10T07:52:57.161Z,98862.09
2022-08-10T07:56:08.296Z,98859.88
2022-08-10T07:58:16.452Z,98863.19
2022-08-10T08:00:46.661Z,98862.06
2022-08-10T08:03:16.431Z,98865.00
2022-08-10T08:05:58.935Z,98858.63
2022-08-10T08:08:32.267Z,98858.34
2022-08-10T08:11:00.702Z,98863.09
2022-08-10T08:13:29.688Z,98860.25
2022-08-10T08:16:18.179Z,98864.00
2022-08-10T08:19:03.996Z,98860.84
2022-08-10T08:24:07.376Z,98870.31
2022-08-10T08:24:31.076Z,98855.75
2022-08-10T08:27:03.158Z,98859.94
2022-08-10T08:29:41.471Z,98864.84
2022-08-10T08:32:11.691Z,98866.88
2022-08-10T08:34:42.719Z,98859.25
2022-08-10T08:37:12.418Z,98861.94
2022-08-10T08:39:47.216Z,98858.31
2022-08-10T08:42:44.782Z,98857.84
2022-08-10T08:46:00.702Z,98853.69
2022-08-10T08:48:55.422Z,98858.66
2022-08-10T08:52:09.498Z,98847.53
2022-08-10T08:54:58.231Z,98856.19
2022-08-10T08:57:49.599Z,98849.16
2022-08-10T09:00:36.562Z,98843.38
2022-08-10T09:03:27.581Z,98837.16
2022-08-10T09:06:04.652Z,98830.72
2022-08-10T09:08:50.104Z,98836.13
2022-08-10T09:11:30.883Z,98825.34
2022-08-10T09:14:08.941Z,98830.94
2022-08-10T09:16:51.989Z,98833.78
2022-08-10T09:19:36.316Z,98830.06
2022-08-10T09:22:17.905Z,98833.06
2022-08-10T09:24:54.649Z,98826.56
2022-08-10T09:27:39.792Z,98829.25
2022-08-10T09:30:16.459Z,98826.72
2022-08-10T09:36:16.127Z,98823.41
2022-08-10T09:36:23.507Z,98813.94
2022-08-10T09:40:05.890Z,98826.25
2022-08-10T09:42:06.282Z,98846.81
2022-08-10T09:45:00.198Z,98827.56
2022-08-10T09:48:01.930Z,98843.03
2022-08-10T09:51:41.786Z,98838.38
2022-08-10T09:54:20.978Z,98840.69
2022-08-10T09:57:43.149Z,98830.34
2022-08-10T10:00:15.661Z,98842.91
2022-08-10T10:03:03.805Z,98842.38
2022-08-10T10:05:51.105Z,98837.72
2022-08-10T10:08:20.529Z,98834.66
2022-08-10T10:11:17.031Z,98842.63
2022-08-10T10:14:26.397Z,98833.97
2022-08-10T10:17:17.502Z,98830.78
2022-08-10T10:20:09.661Z,98829.56
2022-08-10T10:22:46.302Z,98832.97
2022-08-10T10:25:23.471Z,98833.16
2022-08-10T10:28:13.442Z,98815.69
2022-08-10T10:31:16.739Z,98821.06
2022-08-10T10:33:54.585Z,98826.06
2022-08-10T10:36:23.956Z,98821.19
2022-08-10T10:38:54.813Z,98818.06
2022-08-10T10:41:55.987Z,98818.78
2022-08-10T10:44:43.947Z,98806.72
2022-08-10T10:47:27.153Z,98817.47
2022-08-10T10:50:13.995Z,98798.22
2022-08-10T10:53:19.369Z,98793.72
2022-08-10T10:56:16.667Z,98817.19
2022-08-10T10:59:33.284Z,98812.59
2022-08-10T11:02:03.723Z,98807.47
2022-08-10T11:05:09.756Z,98802.78
2022-08-10T11:07:57.035Z,98802.25
2022-08-10T11:10:47.163Z,98804.16
2022-08-10T11:14:25.089Z,98808.38
2022-08-10T11:16:43.521Z,98811.00
2022-08-10T11:19:16.049Z,98789.66
2022-08-10T11:22:01.727Z,98805.22
2022-08-10T11:24:54.158Z,98805.34
2022-08-10T11:27:44.565Z,98799.88
2022-08-10T11:30:19.077Z,98792.06
2022-08-10T11:33:32.403Z,98786.06
2022-08-10T11:36:39.056Z,98814.09
2022-08-10T11:39:31.810Z,98800.66
2022-08-10T11:42:15.223Z,98786.97
2022-08-10T11:45:09.128Z,98782.19
2022-08-10T11:47:45.317Z,98789.59
2022-08-10T11:50:35.228Z,98787.75
2022-08-10T11:53:35.250Z,98781.44
2022-08-10T11:56:11.106Z,98781.38
2022-08-10T11:59:01.931Z,98782.00
2022-08-10T12:01:47.242Z,98769.00
2022-08-10T12:04:16.786Z,98786.41
2022-08-10T12:06:55.993Z,98775.00
2022-08-10T12:10:10.185Z,98760.91
2022-08-10T12:12:14.068Z,98769.19
2022-08-10T12:14:50.747Z,98760.34
2022-08-10T12:17:56.635Z,98763.91
2022-08-10T12:20:35.357Z,98767.25
2022-08-10T12:23:27.736Z,98769.13
2022-08-10T12:26:13.816Z,98758.94
2022-08-10T12:28:52.148Z,98772.25
2022-08-10T12:31:35.317Z,98771.25
2022-08-10T12:34:19.175Z,98759.00
2022-08-10T12:37:00.947Z,98762.91
2022-08-10T12:39:34.757Z,98752.00
2022-08-10T12:42:10.498Z,98740.44
2022-08-10T12:45:03.576Z,98732.78
2022-08-10T12:47:46.972Z,98728.28
2022-08-10T12:50:30.988Z,98737.72
2022-08-10T12:53:29.531Z,98736.59
2022-08-10T12:55:58.765Z,98737.44
2022-08-10T12:58:59.659Z,98712.25
2022-08-10T13:01:18.891Z,98721.41
2022-08-10T13:04:20.583Z,98716.78
2022-08-10T13:06:41.898Z,98713.81
2022-08-10T13:09:09.786Z,98707.75
2022-08-10T13:12:39.504Z,98700.00
2022-08-10T13:15:31.050Z,98702.94
2022-08-10T13:17:58.175Z,98708.66
2022-08-10T13:20:37.166Z,98697.69
2022-08-10T13:23:35.736Z,98700.31
2022-08-10T13:26:04.405Z,98702.81
2022-08-10T13:28:45.572Z,98699.53
2022-08-10T13:31:19.343Z,98702.81
2022-08-10T13:34:03.810Z,98698.66
2022-08-10T13:36:43.946Z,98694.97
2022-08-10T13:39:12.819Z,98689.63
2022-08-10T13:41:44.496Z,98690.69
2022-08-10T13:44:17.864Z,98691.56
2022-08-10T13:46:51.454Z,98696.19
2022-08-10T13:49:21.298Z,98685.97
2022-08-10T13:51:57.034Z,98688.03
2022-08-10T13:54:36.958Z,98683.06
2022-08-10T13:57:06.166Z,98683.47
2022-08-10T14:00:37.497Z,98675.97
2022-08-10T14:02:28.751Z,98669.75
2022-08-10T14:04:58.078Z,98663.22
2022-08-10T14:07:28.577Z,98655.69
2022-08-10T14:10:07.762Z,98663.13
2022-08-10T14:12:39.296Z,98665.31
2022-08-10T14:15:09.912Z,98656.69
2022-08-10T14:17:44.771Z,98659.53
2022-08-10T14:20:19.325Z,98653.06
2022-08-10T14:22:49.505Z,98643.94
2022-08-10T14:25:17.073Z,98646.66
2022-08-10T14:28:03.295Z,98646.28
2022-08-10T14:30:33.162Z,98638.22
2022-08-10T14:33:04.816Z,98634.97
2022-08-10T14:36:19.105Z,98633.81
2022-08-10T14:38:33.628Z,98627.06
2022-08-10T14:41:04.224Z,98629.47
2022-08-10T14:43:42.546Z,98619.84
2022-08-10T14:46:17.795Z,98626.72
2022-08-10T14:48:49.633Z,98630.88
2022-08-10T14:51:26.197Z,98622.38
2022-08-10T14:53:58.786Z,98629.56
2022-08-10T14:56:34.307Z,98637.28
2022-08-10T14:59:07.698Z,98638.56
2022-08-10T15:02:00.563Z,98632.84
2022-08-10T15:04:30.605Z,98623.94
2022-08-10T15:07:12.822Z,98635.03
2022-08-10T15:10:01.453Z,98631.97
2022-08-10T15:12:38.308Z,98633.19
2022-08-10T15:15:27.734Z,98639.19
2022-08-10T15:17:58.958Z,98630.47
2022-08-10T15:20:29.755Z,98625.25
2022-08-10T15:23:30.531Z,98626.25
2022-08-10T15:26:08.468Z,98618.34
2022-08-10T15:29:22.731Z,98616.13
2022-08-10T15:31:56.654Z,98618.53
2022-08-10T15:34:44.558Z,98627.56
2022-08-10T15:37:40.108Z,98621.13
2022-08-10T15:40:25.400Z,98618.59
2022-08-10T15:43:05.799Z,98616.34
2022-08-10T15:46:14.556Z,98618.41
2022-08-10T15:49:01.454Z,98614.75
2022-08-10T15:51:52.873Z,98611.31
2022-08-10T15:54:33.482Z,98619.81
2022-08-10T15:57:21.164Z,98612.44
2022-08-10T16:00:12.520Z,98615.97
2022-08-10T16:02:53.881Z,98612.13
2022-08-10T16:05:58.449Z,98608.31
2022-08-10T16:08:24.400Z,98597.69
2022-08-10T16:11:05.676Z,98601.44
2022-08-10T16:13:50.644Z,98577.19
2022-08-10T16:16:32.803Z,98590.69
2022-08-10T16:19:22.322Z,98585.28
2022-08-10T16:21:57.724Z,98587.31
2022-08-10T16:24:29.822Z,98581.19
2022-08-10T16:26:58.855Z,98575.53
2022-08-10T16:29:27.645Z,98578.19
2022-08-10T16:31:59.815Z,98570.44
2022-08-10T16:34:30.646Z,98571.06
2022-08-10T16:37:03.205Z,98569.31
2022-08-10T16:39:57.835Z,98563.38
2022-08-10T16:42:25.943Z,98570.94
2022-08-10T16:45:06.319Z,98566.41
2022-08-10T16:47:39.205Z,98570.06
2022-08-10T16:50:10.764Z,98564.09
2022-08-10T16:52:40.582Z,98567.06
2022-08-10T16:55:47.447Z,98564.47
2022-08-10T16:58:18.284Z,98576.38
2022-08-10T17:00:47.355Z,98563.50
2022-08-10T17:04:04.921Z,98557.41
2022-08-10T17:06:10.735Z,98565.13
2022-08-10T17:08:48.575Z,98563.84
2022-08-10T17:11:18.874Z,98553.25
2022-08-10T17:13:47.719Z,98562.06
2022-08-10T17:16:17.724Z,98554.47
2022-08-10T17:18:48.137Z,98553.97
2022-08-10T17:21:22.701Z,98553.47
2022-08-10T17:23:54.243Z,98562.34
2022-08-10T17:26:37.126Z,98566.13
2022-08-10T17:29:53.076Z,98555.81
2022-08-10T17:32:08.351Z,98559.91
2022-08-10T17:34:44.715Z,98555.03
2022-08-10T17:37:24.629Z,98558.97
2022-08-10T17:39:58.250Z,98564.25
2022-08-10T17:42:27.379Z,98568.88
2022-08-10T17:44:56.321Z,98564.06
2022-08-10T17:47:27.489Z,98567.78
2022-08-10T17:49:58.049Z,98567.88
2022-08-10T17:52:30.663Z,98574.03
2022-08-10T17:55:03.174Z,98561.59
2022-08-10T17:57:36.809Z,98568.63
2022-08-10T18:00:10.747Z,98568.53
2022-08-10T18:02:40.864Z,98571.53
2022-08-10T18:05:10.366Z,98570.63
2022-08-10T18:07:43.784Z,98576.78
2022-08-10T18:10:17.689Z,98568.03
2022-08-10T18:12:53.331Z,98576.59
2022-08-10T18:15:27.349Z,98571.53
2022-08-10T18:18:02.801Z,98580.31
2022-08-10T18:20:37.462Z,98579.59
2022-08-10T18:23:08.057Z,98568.81
2022-08-10T18:25:40.424Z,98574.34
2022-08-10T18:28:11.538Z,98581.25
2022-08-10T18:30:48.245Z,98582.97
2022-08-10T18:33:19.109Z,98582.41
2022-08-10T18:35:48.213Z,98585.31
2022-08-10T18:38:17.516Z,98592.69
2022-08-10T18:40:53.043Z,98593.78
2022-08-10T18:44:07.126Z,98588.91
2022-08-10T18:46:23.459Z,98592.34
2022-08-10T18:49:09.474Z,98594.47
2022-08-10T18:51:47.499Z,98601.59
2022-08-10T18:54:39.636Z,98609.53
2022-08-10T18:57:27.382Z,98606.59
2022-08-10T19:00:13.551Z,98611.88
2022-08-10T19:03:02.344Z,98612.25
2022-08-10T19:06:00.722Z,98609.91
2022-08-10T19:08:37.065Z,98609.88
2022-08-10T19:11:25.162Z,98617.16
2022-08-10T19:14:25.373Z,98616.94
2022-08-10T19:17:20.189Z,98615.94
2022-08-10T19:20:24.933Z,98618.81
2022-08-10T19:23:06.110Z,98609.66
2022-08-10T19:26:42.417Z,98611.72
2022-08-10T19:29:17.358Z,98612.66
2022-08-10T19:32:25.035Z,98615.72
2022-08-10T19:35:11.263Z,98607.38
2022-08-10T19:38:14.727Z,98610.16
2022-08-10T19:41:30.993Z,98613.22
2022-08-10T19:44:12.379Z,98611.06
2022-08-10T19:46:42.703Z,98605.66
2022-08-10T19:49:16.076Z,98609.75
2022-08-10T19:52:23.394Z,98602.19
2022-08-10T19:55:14.556Z,98610.91
2022-08-10T19:58:02.552Z,98612.00
2022-08-10T20:00:41.080Z,98616.88
2022-08-10T20:03:23.923Z,98610.97
2022-08-10T20:06:18.945Z,98612.09
2022-08-10T20:08:59.284Z,98613.47
2022-08-10T20:11:44.538Z,98610.53
2022-08-10T20:14:23.161Z,98607.88
2022-08-10T20:16:55.906Z,98610.03
2022-08-10T20:19:52.754Z,98600.59
2022-08-10T20:22:29.788Z,98604.66
2022-08-10T20:25:28.148Z,98610.09
2022-08-10T20:28:15.250Z,98607.09
2022-08-10T20:30:48.252Z,98609.00
2022-08-10T20:33:25.644Z,98608.19
2022-08-10T20:36:00.452Z,98615.81
2022-08-10T20:38:53.603Z,98610.94
2022-08-10T20:41:28.704Z,98610.66
2022-08-10T20:44:20.079Z,98606.63
2022-08-10T20:47:01.813Z,98606.38
2022-08-10T20:49:56.803Z,98598.25
2022-08-10T20:52:27.469Z,98612.88
2022-08-10T20:55:02.273Z,98608.00
2022-08-10T20:57:57.443Z,98601.53
2022-08-10T21:00:55.589Z,98604.78
2022-08-10T21:04:00.925Z,98605.88
2022-08-10T21:07:22.149Z,98605.31
2022-08-10T21:10:25.332Z,98613.72
2022-08-10T21:13:14.777Z,98618.34
2022-08-10T21:15:58.200Z,98619.94
2022-08-10T21:19:06.269Z,98617.78
2022-08-10T21:22:01.455Z,98616.41
2022-08-10T21:24:38.999Z,98616.13
2022-08-10T21:27:35.862Z,98622.59
2022-08-10T21:30:20.302Z,98624.50
2022-08-10T21:33:02.722Z,98627.47
2022-08-10T21:35:38.381Z,98625.03
2022-08-10T21:38:26.465Z,98628.28
2022-08-10T21:41:17.471Z,98622.59
2022-08-10T21:44:24.083Z,98620.13
2022-08-10T21:47:39.435Z,98627.44
2022-08-10T21:50:28.001Z,98634.16
2022-08-10T21:53:47.722Z,98625.22
2022-08-10T21:57:00.603Z,98626.84
2022-08-10T21:59:56.455Z,98624.91
2022-08-10T22:02:50.136Z,98615.16
2022-08-10T22:05:47.255Z,98619.19
2022-08-10T22:08:38.793Z,98620.00
2022-08-10T22:11:29.443Z,98615.13
2022-08-10T22:14:27.101Z,98616.72
2022-08-10T22:18:04.001Z,98620.50
2022-08-10T22:20:42.921Z,98619.09
2022-08-10T22:23:40.996Z,98612.06
2022-08-10T22:27:00.677Z,98612.88
2022-08-10T22:29:54.938Z,98620.69
2022-08-10T22:32:50.952Z,98610.97
2022-08-10T22:36:02.543Z,98613.09
2022-08-10T22:38:51.850Z,98617.16
2022-08-10T22:42:02.672Z,98615.28
2022-08-10T22:44:55.171Z,98612.59
2022-08-10T22:47:43.333Z,98614.72
2022-08-10T22:50:13.171Z,98615.22
2022-08-10T22:53:02.912Z,98611.13
2022-08-10T22:55:59.673Z,98611.66
2022-08-10T22:58:47.511Z,98615.94
2022-08-10T23:01:40.860Z,98617.78
2022-08-10T23:04:16.972Z,98624.00
2022-08-10T23:06:56.391Z,98627.22
2022-08-10T23:09:27.611Z,98630.66
2022-08-10T23:11:59.986Z,98626.31
2022-08-10T23:14:35.931Z,98630.56
2022-08-10T23:18:00.556Z,98628.38
2022-08-10T23:20:19.039Z,98625.16
2022-08-10T23:22:50.458Z,98625.44
2022-08-10T23:25:28.252Z,98619.25
2022-08-10T23:28:00.778Z,98622.78
2022-08-10T23:30:36.985Z,98614.59
2022-08-10T23:33:06.578Z,98613.53
2022-08-10T23:36:30.664Z,98613.22
2022-08-10T23:38:40.182Z,98609.47
2022-08-10T23:41:10.111Z,98611.09
2022-08-10T23:44:03.305Z,98612.72
2022-08-10T23:46:37.680Z,98601.97
2022-08-10T23:49:07.894Z,98612.19
2022-08-10T23:51:55.444Z,98604.41
2022-08-10T23:54:26.046Z,98608.97
2022-08-10T23:57:01.383Z,98603.03
2022-08-10T23:59:32.034Z,98602.47
